Time;durP1;ratioP1;P1;durP2;ratioP2;P2;SDS_P1;SDS_P2;PMS_P1;PMS_P2;Temp;Humidity;BMP_temperature;BMP_pressure;BME280_temperature;BME280_humidity;BME280_pressure;Samples;Min_cycle;Max_cycle;Signal;HPM_P1;HPM_P2
2022/12/21 00:01:56;;;;;;;62.55;33.83;;;;;;;8.88;100.00;67754.75;4977419;28;20293;-84
2022/12/21 00:04:22;;;;;;;55.95;29.83;;;;;;;8.85;100.00;67751.91;4973068;28;20038;-85
2022/12/21 00:06:48;;;;;;;62.38;35.42;;;;;;;8.85;100.00;67749.25;4974472;28;20062;-85
2022/12/21 00:09:14;;;;;;;59.28;32.92;;;;;;;8.83;100.00;67747.00;4993481;28;20042;-85
2022/12/21 00:11:39;;;;;;;58.65;30.75;;;;;;;;;;4993120;28;20054;-85
2022/12/21 00:14:05;;;;;;;60.63;30.98;;;;;;;;;;4990863;28;20061;-85
2022/12/21 00:16:32;;;;;;;57.15;30.17;;;;;;;;;;4983477;28;20042;-85
2022/12/21 00:18:58;;;;;;;63.00;30.27;;;;;;;8.84;100.00;67750.22;4995448;28;20068;-85
2022/12/21 00:21:29;;;;;;;59.17;30.05;;;;;;;8.84;100.00;67750.78;4990407;28;20043;-85
2022/12/21 00:23:59;;;;;;;63.08;33.38;;;;;;;8.81;100.00;67747.41;4990828;28;20514;-84
2022/12/21 00:26:25;;;;;;;63.75;31.10;;;;;;;;;;4980822;28;20042;-84
2022/12/21 00:28:53;;;;;;;69.95;34.28;;;;;;;8.80;100.00;67746.25;4979195;28;20410;-84
2022/12/21 00:31:24;;;;;;;66.95;33.13;;;;;;;8.77;100.00;67743.41;4994228;28;20077;-84
2022/12/21 00:33:51;;;;;;;59.67;30.98;;;;;;;8.77;100.00;67743.41;4986307;28;20045;-84
2022/12/21 00:36:18;;;;;;;71.18;34.60;;;;;;;8.77;100.00;67740.75;4974674;28;20486;-84
2022/12/21 00:38:43;;;;;;;60.75;29.27;;;;;;;;;;4978911;28;20047;-84
2022/12/21 00:41:12;;;;;;;73.82;38.15;;;;;;;8.75;100.00;67737.94;4995588;28;20617;-85
2022/12/21 00:43:38;;;;;;;65.50;33.25;;;;;;;;;;4987786;28;20034;-85
2022/12/21 00:46:04;;;;;;;79.18;37.90;;;;;;;8.72;100.00;67737.75;4987505;28;20124;-86
2022/12/21 00:48:31;;;;;;;81.93;42.92;;;;;;;8.74;100.00;67740.00;4988804;28;20110;-85
2022/12/21 00:51:06;;;;;;;80.60;38.08;;;;;;;;;;4980303;28;20053;-85
2022/12/21 00:53:31;;;;;;;81.32;41.20;;;;;;;8.69;100.00;67734.38;4983346;28;20042;-85
2022/12/21 00:55:58;;;;;;;77.53;36.20;;;;;;;8.69;100.00;67731.72;4978195;28;20659;-85
2022/12/21 00:58:25;;;;;;;86.30;41.20;;;;;;;8.69;100.00;67733.78;4977102;28;20093;-85
2022/12/21 01:00:54;;;;;;;84.18;37.95;;;;;;;;;;4985452;28;20046;-85
2022/12/21 01:03:19;;;;;;;81.55;36.38;;;;;;;8.66;100.00;67730.38;5008497;28;20034;-85
2022/12/21 01:05:46;;;;;;;75.47;35.72;;;;;;;8.66;100.00;67730.38;5007518;28;20414;-85
2022/12/21 01:08:11;;;;;;;104.93;47.92;;;;;;;;;;4992112;28;20042;-86
2022/12/21 01:10:37;;;;;;;90.40;39.20;;;;;;;;;;4977710;28;20101;-85
2022/12/21 01:13:02;;;;;;;92.05;43.53;;;;;;;8.61;100.00;67725.28;4979568;28;20049;-85
2022/12/21 01:15:27;;;;;;;94.13;46.30;;;;;;;;;;4977186;28;20097;-86
2022/12/21 01:17:53;;;;;;;87.68;38.42;;;;;;;8.63;100.00;67727.56;4968139;28;20075;-86
2022/12/21 01:20:18;;;;;;;93.05;41.38;;;;;;;8.59;100.00;67723.59;4979620;28;20045;-86
2022/12/21 01:22:43;;;;;;;108.85;49.97;;;;;;;8.59;100.00;67723.59;4979887;28;20046;-86
2022/12/21 01:25:09;;;;;;;107.32;45.75;;;;;;;8.57;100.00;67720.75;4985989;28;20092;-86
2022/12/21 01:27:34;;;;;;;90.40;38.38;;;;;;;8.57;100.00;67718.09;4991281;28;20073;-86
2022/12/21 01:29:59;;;;;;;111.45;50.25;;;;;;;8.57;100.00;67720.75;4986672;28;20396;-86
2022/12/21 01:32:25;;;;;;;101.75;40.70;;;;;;;;;;4975236;28;20051;-86
2022/12/21 01:34:50;;;;;;;101.93;40.30;;;;;;;8.55;100.00;67719.06;4971841;28;20049;-86
2022/12/21 01:37:16;;;;;;;107.00;38.05;;;;;;;8.56;100.00;67717.53;4971471;28;20293;-86
2022/12/21 01:39:41;;;;;;;119.43;44.25;;;;;;;8.53;100.00;67716.22;4983065;28;20046;-86
2022/12/21 01:42:10;;;;;;;112.60;45.83;;;;;;;;;;4986137;28;20034;-86
2022/12/21 01:44:53;;;;;;;117.53;44.45;;;;;;;;;;4974949;28;20050;-86
2022/12/21 01:47:24;;;;;;;118.18;51.38;;;;;;;8.51;100.00;67713.97;4987213;28;20047;-85
2022/12/21 01:49:54;;;;;;;124.35;51.17;;;;;;;8.49;100.00;67709.63;4977974;28;20092;-86
2022/12/21 01:52:20;;;;;;;136.25;47.30;;;;;;;8.47;100.00;67714.75;4988048;28;20506;-85
2022/12/21 01:54:53;;;;;;;133.57;49.60;;;;;;;8.45;100.00;67704.50;4987487;28;20056;-86
2022/12/21 01:57:18;;;;;;;141.30;50.40;;;;;;;;;;4977862;28;20043;-86
2022/12/21 01:59:47;;;;;;;134.10;50.33;;;;;;;8.46;100.00;67705.63;4978285;28;20051;-86
2022/12/21 02:02:17;;;;;;;116.95;40.60;;;;;;;8.46;100.00;67708.28;4975177;28;20043;-86
2022/12/21 02:04:43;;;;;;;124.60;44.05;;;;;;;8.43;100.00;67710.78;4972885;28;20569;-86
2022/12/21 02:07:08;;;;;;;151.70;59.33;;;;;;;8.45;100.00;67707.16;4985923;28;20047;-86
2022/12/21 02:09:34;;;;;;;136.50;49.90;;;;;;;;;;4981360;28;20050;-86
2022/12/21 02:12:03;;;;;;;128.27;47.30;;;;;;;8.44;100.00;67706.03;4983820;28;20491;-86
2022/12/21 02:14:33;;;;;;;125.85;45.97;;;;;;;8.43;100.00;67705.47;4988445;28;20121;-86
2022/12/21 02:17:24;;;;;;;123.80;46.80;;;;;;;8.42;100.00;67704.34;4985445;28;20405;-86
2022/12/21 02:20:11;;;;;;;136.60;49.33;;;;;;;8.41;100.00;67703.22;4987537;28;20039;-85
2022/12/21 02:22:39;;;;;;;118.20;40.40;;;;;;;;;;4984811;28;20378;-85
2022/12/21 02:25:20;;;;;;;144.95;49.17;;;;;;;;;;4984079;28;20046;-86
2022/12/21 02:28:27;;;;;;;125.85;42.47;;;;;;;8.40;100.00;67707.38;4997961;28;20108;-86
2022/12/21 02:31:04;;;;;;;133.68;46.13;;;;;;;;;;4951469;28;20761;-86
2022/12/21 02:33:33;;;;;;;136.88;45.05;;;;;;;;;;4971925;28;20050;-86
2022/12/21 02:36:17;;;;;;;146.00;46.70;;;;;;;;;;4977836;28;20402;-85
2022/12/21 02:38:45;;;;;;;169.45;59.53;;;;;;;;;;4986559;28;20034;-86
2022/12/21 02:41:13;;;;;;;158.00;55.10;;;;;;;;;;4980632;28;20043;-86
2022/12/21 02:44:15;;;;;;;165.10;58.53;;;;;;;8.29;100.00;67695.47;4983043;28;20043;-85
2022/12/21 02:47:03;;;;;;;164.07;50.33;;;;;;;8.27;100.00;67684.69;4985145;28;20419;-86
2022/12/21 02:49:28;;;;;;;151.45;47.50;;;;;;;;;;4965056;28;20049;-85
2022/12/21 02:52:06;;;;;;;172.10;54.35;;;;;;;8.26;100.00;67686.75;4985593;28;20486;-85
2022/12/21 02:54:36;;;;;;;146.75;45.65;;;;;;;8.25;100.00;67685.63;4989011;28;20093;-86
2022/12/21 02:57:02;;;;;;;146.40;46.20;;;;;;;8.24;100.00;67684.50;4975289;28;20745;-86
2022/12/21 02:59:30;;;;;;;176.70;54.45;;;;;;;8.24;100.00;67681.28;4986944;28;20062;-86
2022/12/21 03:02:14;;;;;;;169.65;56.05;;;;;;;8.22;100.00;67679.56;4983811;28;20053;-86
2022/12/21 03:04:53;;;;;;;166.52;57.78;;;;;;;8.21;100.00;67680.53;4979799;28;20062;-86
2022/12/21 03:07:31;;;;;;;181.40;59.88;;;;;;;;;;4994703;28;20050;-86
2022/12/21 03:10:42;;;;;;;194.50;57.45;;;;;;;8.16;100.00;67675.44;4985726;28;20073;-86
2022/12/21 03:13:38;;;;;;;191.40;61.53;;;;;;;8.13;100.00;67672.59;4965515;28;20062;-85
2022/12/21 03:16:32;;;;;;;171.25;56.83;;;;;;;8.12;100.00;67676.22;4978377;28;20410;-85
2022/12/21 03:19:02;;;;;;;184.90;61.90;;;;;;;8.09;100.00;67665.44;4971725;28;20129;-86
2022/12/21 03:21:44;;;;;;;176.55;54.75;;;;;;;8.09;100.00;67667.50;4976260;28;20051;-84
2022/12/21 03:24:22;;;;;;;194.35;63.67;;;;;;;8.09;100.00;67665.44;4984031;28;20043;-85
2022/12/21 03:26:56;;;;;;;186.60;58.60;;;;;;;;;;4984400;28;20506;-84
2022/12/21 03:29:29;;;;;;;183.98;59.88;;;;;;;8.07;100.00;67671.09;4978517;28;20070;-84
2022/12/21 03:31:59;;;;;;;185.55;62.55;;;;;;;8.08;100.00;67666.38;4979254;28;20066;-85
2022/12/21 03:34:34;;;;;;;165.88;53.85;;;;;;;8.08;100.00;67672.22;4972372;28;20513;-84
2022/12/21 03:37:04;;;;;;;195.30;60.67;;;;;;;;;;4974161;28;20044;-84
2022/12/21 03:39:32;;;;;;;188.82;55.15;;;;;;;8.05;100.00;67662.97;4980464;28;20054;-84
2022/12/21 03:42:05;;;;;;;170.43;51.33;;;;;;;8.06;100.00;67664.13;4980045;28;20415;-84
2022/12/21 03:44:33;;;;;;;181.32;56.65;;;;;;;;;;4990193;28;20043;-84
2022/12/21 03:47:01;;;;;;;187.15;58.85;;;;;;;;;;4987881;28;20069;-84
2022/12/21 03:49:33;;;;;;;201.40;64.07;;;;;;;8.02;100.00;67654.84;4985244;28;20046;-84
2022/12/21 03:52:02;;;;;;;207.45;62.65;;;;;;;;;;4988878;28;20566;-84
2022/12/21 03:54:36;;;;;;;177.20;55.55;;;;;;;8.02;100.00;67656.94;4984281;28;20085;-85
2022/12/21 03:57:04;;;;;;;182.63;54.55;;;;;;;8.00;100.00;67657.31;4981846;28;20035;-84
2022/12/21 03:59:29;;;;;;;190.80;56.78;;;;;;;8.01;100.00;67658.44;4990454;28;20042;-85
2022/12/21 04:01:57;;;;;;;176.10;53.55;;;;;;;;;;4990943;28;20609;-84
2022/12/21 04:04:34;;;;;;;175.93;55.00;;;;;;;;;;4997217;28;20041;-84
2022/12/21 04:07:04;;;;;;;161.90;52.85;;;;;;;7.98;100.00;67655.06;4981419;28;20043;-84
2022/12/21 04:09:29;;;;;;;167.05;53.03;;;;;;;7.95;100.00;67657.53;4978991;28;20068;-83
2022/12/21 04:14:39;;;;;;;162.25;54.10;;;;;;;;;;4976113;28;20042;-84
2022/12/21 04:17:04;;;;;;;169.00;53.58;;;;;;;7.93;100.00;67649.41;4982346;28;20042;-84
2022/12/21 04:28:07;;;;;;;165.32;51.45;;;;;;;7.90;100.00;67646.56;5007000;28;20494;-85
2022/12/21 04:30:30;;;;;;;189.93;54.20;;;;;;;;;;4973731;28;20081;-83
2022/12/21 04:32:56;;;;;;;189.55;54.28;;;;;;;;;;4982435;28;20050;-84
2022/12/21 04:35:21;;;;;;;286.92;58.38;;;;;;;7.75;100.00;67630.16;4989561;28;20040;-83
2022/12/21 04:37:46;;;;;;;213.82;55.88;;;;;;;7.72;100.00;67624.09;4972125;28;20525;-84
2022/12/21 04:40:12;;;;;;;231.25;57.40;;;;;;;7.71;100.00;67630.34;4981968;28;20062;-84
2022/12/21 04:42:38;;;;;;;201.57;52.80;;;;;;;7.65;100.00;67619.41;4983944;28;20098;-85
2022/12/21 04:45:04;;;;;;;232.90;56.80;;;;;;;7.64;100.00;67623.56;4983313;28;20505;-83
2022/12/21 04:47:30;;;;;;;243.10;58.92;;;;;;;;;;4985877;28;20039;-84
2022/12/21 04:49:55;;;;;;;218.52;54.42;;;;;;;7.63;100.00;67616.56;4978612;28;20490;-84
2022/12/21 04:52:20;;;;;;;201.50;54.40;;;;;;;;;;4977342;28;20509;-84
2022/12/21 04:54:46;;;;;;;218.75;56.97;;;;;;;7.64;100.00;67615.59;4961145;28;20051;-84
2022/12/21 04:57:11;;;;;;;179.45;55.40;;;;;;;7.65;100.00;67618.81;4975380;28;20478;-85
2022/12/21 04:59:36;;;;;;;187.43;52.83;;;;;;;7.63;100.00;67622.44;4970665;28;20097;-83
2022/12/21 05:02:02;;;;;;;170.50;53.30;;;;;;;;;;4975771;28;20133;-85
2022/12/21 05:04:27;;;;;;;196.95;54.88;;;;;;;7.64;100.00;67618.25;4971318;28;20047;-84
2022/12/21 05:06:54;;;;;;;206.30;54.55;;;;;;;;;;4964723;28;20121;-82
2022/12/21 05:09:20;;;;;;;206.35;55.75;;;;;;;7.58;100.00;67610.91;4966784;28;20043;-84
2022/12/21 05:11:45;;;;;;;217.18;57.45;;;;;;;7.58;100.00;67608.81;4971019;28;20117;-84
2022/12/21 05:14:11;;;;;;;179.30;49.05;;;;;;;7.59;100.00;67617.31;4970447;28;20097;-83
2022/12/21 05:16:38;;;;;;;171.65;49.88;;;;;;;7.60;100.00;67618.47;4969962;28;20047;-85
2022/12/21 05:19:03;;;;;;;196.82;59.20;;;;;;;;;;4969041;28;20459;-84
2022/12/21 05:21:28;;;;;;;188.02;57.83;;;;;;;;;;4975043;28;20081;-84
2022/12/21 05:23:54;;;;;;;167.60;54.50;;;;;;;7.66;100.00;67620.53;4976869;28;20054;-83
2022/12/21 05:26:19;;;;;;;175.82;52.30;;;;;;;7.67;100.00;67621.09;4968784;28;20047;-84
2022/12/21 05:28:46;;;;;;;157.55;47.88;;;;;;;7.64;100.00;67618.25;4970075;28;20034;-84
2022/12/21 05:31:13;;;;;;;91.65;33.08;;;;;;;7.50;100.00;67602.41;4971450;28;20453;-84
2022/12/21 05:33:38;;;;;;;98.18;36.55;;;;;;;;;;4971102;28;20039;-85
2022/12/21 05:36:06;;;;;;;84.20;35.67;;;;;;;7.39;100.00;67589.97;4970489;28;20407;-84
2022/12/21 05:38:31;;;;;;;79.65;25.85;;;;;;;;;;4966148;28;20038;-85
2022/12/21 05:40:57;;;;;;;70.28;30.15;;;;;;;;;;4976130;28;20043;-85
2022/12/21 05:43:22;;;;;;;58.15;24.05;;;;;;;7.31;100.00;67581.47;4976130;28;20046;-84
2022/12/21 05:45:48;;;;;;;55.63;21.45;;;;;;;7.26;100.00;67575.25;4967132;28;20045;-84
2022/12/21 05:48:13;;;;;;;64.07;23.60;;;;;;;7.25;100.00;67574.69;4970102;28;20059;-84
2022/12/21 05:50:39;;;;;;;50.88;21.52;;;;;;;7.21;100.00;67570.16;4972055;28;20031;-85
2022/12/21 05:53:06;;;;;;;58.47;21.60;;;;;;;7.21;100.00;67570.72;4971867;28;20426;-83
2022/12/21 05:55:31;;;;;;;59.17;25.65;;;;;;;7.20;100.00;67566.94;4971356;28;20035;-83
2022/12/21 05:57:57;;;;;;;66.88;29.23;;;;;;;7.23;100.00;67572.44;4976275;28;20039;-84
2022/12/21 06:00:22;;;;;;;62.50;27.52;;;;;;;7.25;100.00;67574.69;4968234;28;20046;-85
2022/12/21 06:02:48;;;;;;;70.70;29.23;;;;;;;7.26;100.00;67575.81;4967780;28;20073;-85
2022/12/21 06:05:13;;;;;;;63.00;26.50;;;;;;;7.26;100.00;67575.81;4964059;28;20129;-85
2022/12/21 06:07:38;;;;;;;62.13;24.65;;;;;;;;;;4966154;28;20035;-85
2022/12/21 06:10:04;;;;;;;66.70;25.25;;;;;;;7.23;100.00;67572.44;4962942;28;20050;-85
2022/12/21 06:12:30;;;;;;;70.65;29.50;;;;;;;;;;4967356;28;20042;-84
2022/12/21 06:14:56;;;;;;;73.95;29.70;;;;;;;7.23;100.00;67573.00;4966034;28;20181;-85
2022/12/21 06:17:21;;;;;;;77.82;32.13;;;;;;;7.25;100.00;67580.00;4963388;28;20562;-85
2022/12/21 06:19:46;;;;;;;82.95;34.97;;;;;;;7.27;100.00;67576.94;4961852;28;20050;-86
2022/12/21 06:22:12;;;;;;;76.60;32.67;;;;;;;;;;4969204;28;20654;-84
2022/12/21 06:24:37;;;;;;;79.95;33.80;;;;;;;;;;4967475;28;20583;-84
2022/12/21 06:27:02;;;;;;;76.88;31.52;;;;;;;7.25;100.00;67580.00;4967079;28;20418;-85
2022/12/21 06:29:28;;;;;;;80.70;34.08;;;;;;;7.23;100.00;67578.28;4963498;28;20467;-85
2022/12/21 06:31:53;;;;;;;82.28;36.05;;;;;;;;;;4968475;28;20082;-85
2022/12/21 06:34:18;;;;;;;86.18;36.30;;;;;;;7.22;100.00;67568.63;4961290;28;20531;-84
2022/12/21 06:36:44;;;;;;;79.05;30.77;;;;;;;7.19;100.00;67567.88;4965924;28;20035;-83
2022/12/21 06:39:09;;;;;;;87.60;35.90;;;;;;;7.19;100.00;67567.88;4959744;28;20046;-85
2022/12/21 06:41:34;;;;;;;80.45;27.70;;;;;;;;;;4968070;28;20565;-85
2022/12/21 06:44:00;;;;;;;67.70;29.02;;;;;;;7.16;100.00;67565.09;4964508;28;20454;-85
2022/12/21 06:46:25;;;;;;;69.20;32.20;;;;;;;7.12;100.00;67565.84;4961919;28;20121;-82
2022/12/21 06:48:51;;;;;;;56.50;26.08;;;;;;;7.10;100.00;67558.28;4967607;28;20043;-84
2022/12/21 06:51:25;;;;;;;61.72;29.25;;;;;;;;;;4964098;28;20054;-86
2022/12/21 06:53:52;;;;;;;56.88;25.48;;;;;;;7.04;100.00;67556.22;4960592;28;20089;-85
2022/12/21 06:56:25;;;;;;;53.25;23.58;;;;;;;7.00;100.00;67552.25;4953340;28;20039;-85
2022/12/21 06:58:53;;;;;;;56.33;22.60;;;;;;;6.99;100.00;67545.81;4966684;28;20053;-84
2022/12/21 07:01:19;;;;;;;53.30;24.48;;;;;;;;;;4948704;28;20051;-85
2022/12/21 07:03:45;;;;;;;50.40;22.42;;;;;;;6.96;100.00;67543.00;4964761;28;20113;-83
2022/12/21 07:06:13;;;;;;;51.15;22.05;;;;;;;6.93;100.00;67536.97;4961681;28;20488;-83
2022/12/21 07:08:39;;;;;;;46.80;22.13;;;;;;;;;;4953964;28;20047;-85
2022/12/21 07:11:06;;;;;;;50.05;22.88;;;;;;;;;;4953075;28;20098;-84
2022/12/21 07:13:34;;;;;;;53.53;27.00;;;;;;;;;;4968709;28;20034;-84
2022/12/21 07:15:59;;;;;;;54.40;23.40;;;;;;;6.88;100.00;67533.97;4977695;28;20098;-84
2022/12/21 07:18:24;;;;;;;54.28;25.77;;;;;;;;;;4963162;28;20077;-84
2022/12/21 07:20:54;;;;;;;52.50;25.88;;;;;;;;;;4979711;28;20490;-84
2022/12/21 07:23:20;;;;;;;51.20;21.67;;;;;;;6.83;100.00;67533.03;4962830;28;20082;-85
2022/12/21 07:25:45;;;;;;;49.70;21.60;;;;;;;6.80;100.00;67524.91;4964936;28;20522;-85
2022/12/21 07:28:10;;;;;;;44.70;19.25;;;;;;;;;;4968452;28;20502;-84
2022/12/21 07:30:36;;;;;;;63.72;23.70;;;;;;;;;;4970067;28;20561;-85
2022/12/21 07:33:01;;;;;;;56.22;22.23;;;;;;;;;;4972790;28;20704;-85
2022/12/21 07:35:26;;;;;;;52.78;21.50;;;;;;;;;;4964642;28;20043;-85
2022/12/21 07:37:51;;;;;;;53.22;21.52;;;;;;;6.79;100.00;67529.06;4960440;28;20090;-85
2022/12/21 07:40:17;;;;;;;48.55;20.17;;;;;;;;;;4967231;28;20056;-85
2022/12/21 07:42:43;;;;;;;62.45;26.48;;;;;;;;;;4963536;28;20043;-85
2022/12/21 07:45:09;;;;;;;62.00;24.77;;;;;;;6.82;100.00;67526.59;4956489;28;20059;-85
2022/12/21 07:47:35;;;;;;;57.97;30.58;;;;;;;6.83;100.00;67527.75;4963186;28;20050;-85
2022/12/21 07:50:05;;;;;;;67.38;30.17;;;;;;;;;;4970960;28;20041;-85
2022/12/21 07:52:30;;;;;;;;;;;;;;;6.86;100.00;67536.44;4968644;28;20587;-85
2022/12/21 07:54:56;;;;;;;73.20;28.38;;;;;;;;;;4963211;28;19922;-85
2022/12/21 07:57:21;;;;;;;56.70;23.30;;;;;;;6.80;100.00;67522.25;4963114;28;20109;-86
2022/12/21 07:59:46;;;;;;;55.83;19.08;;;;;;;;;;4973003;28;20134;-85
2022/12/21 08:02:12;;;;;;;54.92;20.70;;;;;;;6.84;100.00;67529.44;4971244;28;20054;-85
2022/12/21 08:04:37;;;;;;;41.55;15.63;;;;;;;6.84;100.00;67534.72;4970629;28;20461;-85
2022/12/21 08:07:02;;;;;;;45.22;19.25;;;;;;;;;;4970696;28;20047;-85
2022/12/21 08:09:27;;;;;;;44.10;18.40;;;;;;;6.83;100.00;67528.31;4964585;28;20193;-85
2022/12/21 08:11:53;;;;;;;39.45;16.73;;;;;;;6.83;100.00;67533.59;4968932;28;20039;-85
2022/12/21 08:14:18;;;;;;;42.85;16.80;;;;;;;6.83;100.00;67527.75;4965126;28;20039;-85
2022/12/21 08:16:44;;;;;;;41.67;17.98;;;;;;;6.82;100.00;67524.53;4962131;28;20034;-85
2022/12/21 08:19:09;;;;;;;48.70;20.05;;;;;;;6.81;100.00;67522.81;4961069;28;20042;-84
2022/12/21 08:21:34;;;;;;;37.30;16.38;;;;;;;6.80;100.00;67530.19;4953490;28;20125;-85
2022/12/21 08:24:00;;;;;;;40.72;16.75;;;;;;;;;;4960900;28;20125;-85
2022/12/21 08:26:25;;;;;;;43.10;18.58;;;;;;;;;;4960609;28;20061;-85
2022/12/21 08:28:50;;;;;;;51.20;25.85;;;;;;;6.81;100.00;67525.47;4956554;28;20562;-86
2022/12/21 08:31:17;;;;;;;45.25;23.55;;;;;;;;;;4960099;28;20142;-84
2022/12/21 08:33:45;;;;;;;36.25;19.38;;;;;;;6.80;100.00;67524.91;4957269;28;20043;-85
2022/12/21 08:36:12;;;;;;;35.15;13.07;;;;;;;6.79;100.00;67523.78;4957721;28;20042;-85
2022/12/21 08:38:38;;;;;;;36.15;15.63;;;;;;;6.80;100.00;67524.91;4960557;28;20106;-85
2022/12/21 08:41:04;;;;;;;32.30;16.80;;;;;;;6.81;100.00;67525.47;4967981;28;20101;-85
2022/12/21 08:43:30;;;;;;;32.78;17.27;;;;;;;6.81;100.00;67531.31;4972726;28;20058;-85
2022/12/21 08:45:56;;;;;;;33.30;16.75;;;;;;;6.82;100.00;67524.53;4961275;28;20050;-84
2022/12/21 08:48:21;;;;;;;35.45;18.25;;;;;;;6.81;100.00;67523.38;4970344;28;20045;-85
2022/12/21 08:50:50;;;;;;;36.30;19.00;;;;;;;;;;4970644;28;20522;-85
2022/12/21 08:53:16;;;;;;;;;;;;;;;6.84;100.00;67529.44;4966395;28;20057;-85
2022/12/21 08:55:41;;;;;;;38.35;17.98;;;;;;;6.78;100.00;67523.19;4968085;28;19918;-85
2022/12/21 08:58:06;;;;;;;36.47;20.30;;;;;;;6.79;100.00;67523.78;4963274;28;20130;-85
2022/12/21 09:00:32;;;;;;;39.33;19.88;;;;;;;6.80;100.00;67524.34;4953682;28;20098;-85
2022/12/21 09:02:57;;;;;;;36.70;19.13;;;;;;;;;;4951467;28;20046;-84
2022/12/21 09:05:22;;;;;;;38.75;17.35;;;;;;;6.84;100.00;67529.44;4953720;28;20073;-84
2022/12/21 09:07:48;;;;;;;36.28;16.48;;;;;;;;;;4962649;28;20118;-84
2022/12/21 09:10:13;;;;;;;42.92;19.40;;;;;;;6.87;100.00;67538.09;4954180;28;20043;-84
2022/12/21 09:12:39;;;;;;;36.70;17.10;;;;;;;;;;4955487;28;20047;-84
2022/12/21 09:15:05;;;;;;;38.95;17.75;;;;;;;6.92;100.00;67538.47;4965388;28;20046;-84
2022/12/21 09:17:30;;;;;;;42.85;18.83;;;;;;;6.91;100.00;67532.06;4974578;28;20580;-84
2022/12/21 09:19:56;;;;;;;41.20;16.45;;;;;;;6.92;100.00;67535.28;4969871;28;20046;-84
2022/12/21 09:22:23;;;;;;;35.97;16.67;;;;;;;;;;4969743;28;20054;-84
2022/12/21 09:24:48;;;;;;;42.05;20.52;;;;;;;6.92;100.00;67535.84;4968234;28;20043;-84
2022/12/21 09:27:13;;;;;;;45.08;18.13;;;;;;;;;;4969878;28;20135;-84
2022/12/21 09:29:39;;;;;;;47.15;22.48;;;;;;;6.95;100.00;67541.88;4965727;28;20109;-84
2022/12/21 09:32:04;;;;;;;55.35;26.27;;;;;;;;;;4967644;28;20642;-84
2022/12/21 09:34:29;;;;;;;47.35;24.55;;;;;;;;;;4961539;28;20057;-84
2022/12/21 09:36:55;;;;;;;58.42;25.98;;;;;;;6.98;100.00;67542.63;4954674;28;20078;-84
2022/12/21 09:39:20;;;;;;;58.00;27.15;;;;;;;6.98;100.00;67542.06;4964306;28;20103;-84
2022/12/21 09:41:55;;;;;;;61.72;28.73;;;;;;;7.01;100.00;67548.66;4979715;28;20043;-84
2022/12/21 09:44:29;;;;;;;55.75;25.30;;;;;;;7.02;100.00;67549.25;4982484;28;20416;-84
2022/12/21 09:46:56;;;;;;;53.92;28.33;;;;;;;;;;4983232;28;20039;-84
2022/12/21 09:49:34;;;;;;;58.75;25.98;;;;;;;7.09;100.00;67556.59;4985912;28;20125;-84
2022/12/21 09:52:02;;;;;;;57.90;25.23;;;;;;;7.12;100.00;67559.97;4981334;28;20049;-84
2022/12/21 09:54:35;;;;;;;55.30;26.98;;;;;;;;;;4982171;28;20042;-84
2022/12/21 09:57:01;;;;;;;58.00;27.23;;;;;;;7.15;100.00;67561.28;4990609;28;20459;-84
2022/12/21 09:59:26;;;;;;;59.00;27.30;;;;;;;7.17;100.00;67571.50;4994006;28;20042;-84
2022/12/21 10:02:10;;;;;;;54.97;25.60;;;;;;;7.17;100.00;67566.19;4987679;28;20029;-84
2022/12/21 10:04:35;;;;;;;62.00;31.17;;;;;;;;;;5003049;28;20039;-84
2022/12/21 10:07:26;;;;;;;60.40;27.75;;;;;;;7.20;100.00;67569.59;4985855;28;20041;-84
2022/12/21 10:10:14;;;;;;;67.35;27.58;;;;;;;7.26;100.00;67575.81;4975627;28;20506;-84
2022/12/21 10:13:04;;;;;;;72.82;32.70;;;;;;;7.26;100.00;67575.81;5003212;28;20062;-84
2022/12/21 10:16:20;;;;;;;69.35;33.63;;;;;;;7.28;100.00;67578.09;4983571;28;20047;-84
2022/12/21 10:19:04;;;;;;;57.90;30.98;;;;;;;7.26;100.00;67572.63;4963586;28;20042;-84
2022/12/21 10:22:02;;;;;;;58.75;27.35;;;;;;;7.23;100.00;67573.00;4967755;28;20403;-84
2022/12/21 10:24:45;;;;;;;64.60;33.17;;;;;;;7.23;100.00;67572.44;4960579;28;20038;-84
2022/12/21 10:27:18;;;;;;;63.17;28.92;;;;;;;7.23;100.00;67572.44;4979926;28;20515;-83
2022/12/21 10:29:51;;;;;;;58.22;27.50;;;;;;;7.26;100.00;67575.81;4974339;28;20122;-84
2022/12/21 10:32:16;;;;;;;62.15;31.13;;;;;;;7.34;100.00;67584.88;4985575;28;20676;-84
2022/12/21 10:34:46;;;;;;;52.83;28.13;;;;;;;;;;4998084;28;20049;-84
2022/12/21 10:37:18;;;;;;;54.95;28.30;;;;;;;7.46;100.00;67597.88;4997519;28;20081;-84
2022/12/21 10:39:43;;;;;;;61.67;32.83;;;;;;;;;;4985762;28;20529;-84
2022/12/21 10:42:41;;;;;;;61.78;32.17;;;;;;;;;;4985966;28;20069;-84
2022/12/21 10:45:15;;;;;;;59.85;29.85;;;;;;;7.50;100.00;67602.41;4952638;28;20497;-84
2022/12/21 10:47:42;;;;;;;59.75;26.48;;;;;;;;;;4975754;28;20561;-84
2022/12/21 10:50:08;;;;;;;67.07;39.10;;;;;;;7.52;100.00;67604.13;4976129;28;20035;-84
2022/12/21 10:52:44;;;;;;;62.10;31.92;;;;;;;7.52;100.00;67604.69;4970520;28;20046;-84
2022/12/21 10:55:19;;;;;;;68.88;36.53;;;;;;;7.49;100.00;67600.72;4977667;28;20046;-84
2022/12/21 10:57:55;;;;;;;69.47;39.28;;;;;;;7.47;100.00;67599.56;4983689;28;20038;-85
2022/12/21 11:00:25;;;;;;;66.80;37.25;;;;;;;7.48;100.00;67600.16;4975975;28;20104;-84
2022/12/21 11:02:52;;;;;;;71.40;37.72;;;;;;;7.50;100.00;67599.19;4992355;28;20390;-84
2022/12/21 11:05:31;;;;;;;73.03;37.08;;;;;;;;;;4982082;28;20070;-84
2022/12/21 11:08:28;;;;;;;81.15;42.70;;;;;;;7.48;100.00;67600.16;4974140;28;20042;-84
2022/12/21 11:11:00;;;;;;;69.78;38.58;;;;;;;7.48;100.00;67600.16;4985479;28;20034;-84
2022/12/21 11:13:31;;;;;;;66.68;31.60;;;;;;;7.48;100.00;67600.16;5007082;28;20050;-84
2022/12/21 11:16:10;;;;;;;76.97;42.63;;;;;;;7.50;100.00;67601.84;4997899;28;20042;-84
2022/12/21 11:18:39;;;;;;;;;;;;;;;7.51;100.00;67600.31;5006574;28;20053;-84
2022/12/21 11:21:31;;;;;;;70.85;33.22;;;;;;;7.44;100.00;67593.53;4997017;28;19917;-84
2022/12/21 11:24:03;;;;;;;63.63;33.70;;;;;;;7.46;100.00;67597.88;4975867;28;20417;-84
2022/12/21 11:26:32;;;;;;;62.05;36.17;;;;;;;7.49;100.00;67601.28;4982127;28;20049;-84
2022/12/21 11:29:01;;;;;;;68.05;35.75;;;;;;;7.53;100.00;67610.53;5001960;28;20045;-84
2022/12/21 11:31:29;;;;;;;68.25;36.45;;;;;;;7.55;100.00;67608.06;4978304;28;20045;-84
2022/12/21 11:33:54;;;;;;;66.72;36.85;;;;;;;7.59;100.00;67606.72;4993471;28;20132;-84
2022/12/21 11:36:19;;;;;;;61.33;37.20;;;;;;;;;;4972740;28;20714;-84
2022/12/21 11:38:45;;;;;;;50.38;28.02;;;;;;;7.60;100.00;67613.75;4980233;28;20047;-84
2022/12/21 11:41:16;;;;;;;50.25;31.25;;;;;;;;;;4977220;28;20117;-84
2022/12/21 11:43:50;;;;;;;52.58;27.60;;;;;;;7.64;100.00;67618.25;4980363;28;20046;-85
2022/12/21 11:46:15;;;;;;;46.58;23.80;;;;;;;;;;4980780;28;20070;-84
2022/12/21 11:48:53;;;;;;;49.53;28.57;;;;;;;7.68;100.00;67622.22;4982425;28;20037;-84
2022/12/21 11:51:59;;;;;;;49.25;25.25;;;;;;;7.70;100.00;67624.47;4987717;28;20276;-84
2022/12/21 11:54:33;;;;;;;47.25;25.17;;;;;;;;;;4984308;28;20043;-84
2022/12/21 11:57:58;;;;;;;48.45;26.58;;;;;;;7.77;100.00;67637.13;4981383;28;20097;-85
2022/12/21 12:00:25;;;;;;;45.47;24.80;;;;;;;7.79;100.00;67632.00;4948421;28;20089;-84
2022/12/21 12:03:24;;;;;;;56.67;28.65;;;;;;;7.84;100.00;67637.13;4972801;28;20041;-85
2022/12/21 12:06:02;;;;;;;51.88;31.05;;;;;;;7.87;100.00;67643.72;5008374;28;20084;-84
2022/12/21 12:08:43;;;;;;;49.67;25.92;;;;;;;7.89;100.00;67646.00;5001507;28;20085;-85
2022/12/21 12:11:20;;;;;;;45.67;28.17;;;;;;;7.94;100.00;67650.53;4988188;28;20042;-85
2022/12/21 12:14:12;;;;;;;54.58;31.08;;;;;;;7.99;100.00;67653.53;4995021;28;20130;-84
2022/12/21 12:16:56;;;;;;;55.63;27.60;;;;;;;8.01;100.00;67655.81;4982506;28;20043;-85
2022/12/21 12:19:28;;;;;;;55.97;25.65;;;;;;;8.03;100.00;67658.63;4982021;28;20125;-85
2022/12/21 12:22:12;;;;;;;57.15;29.80;;;;;;;8.07;100.00;67662.59;4987039;28;20038;-85
2022/12/21 12:24:52;;;;;;;60.92;35.08;;;;;;;8.08;100.00;67664.28;4984562;28;20067;-84
2022/12/21 12:27:36;;;;;;;54.92;30.65;;;;;;;;;;4967111;28;20043;-85